sensor_id;sensor_type;location;lat;lon;timestamp;temperature;humidity
47765;DHT22;33529;49.242;8.670;2023-02-28T00:00:37;-0.30;99.90
47765;DHT22;33529;49.242;8.670;2023-02-28T00:03:05;-0.30;99.90
47765;DHT22;33529;49.242;8.670;2023-02-28T00:05:33;-0.30;99.90
47765;DHT22;33529;49.242;8.670;2023-02-28T00:08:00;-0.30;99.90
47765;DHT22;33529;49.242;8.670;2023-02-28T00:10:29;-0.30;99.90
47765;DHT22;33529;49.242;8.670;2023-02-28T00:13:00;-0.40;99.90
47765;DHT22;33529;49.242;8.670;2023-02-28T00:15:27;-0.40;99.90
47765;DHT22;33529;49.242;8.670;2023-02-28T00:17:54;-0.40;99.90
47765;DHT22;33529;49.242;8.670;2023-02-28T00:20:21;-0.40;99.90
47765;DHT22;33529;49.242;8.670;2023-02-28T00:22:50;-0.40;99.90
47765;DHT22;33529;49.242;8.670;2023-02-28T00:25:20;-0.40;99.90
47765;DHT22;33529;49.242;8.670;2023-02-28T00:27:48;-0.40;99.90
47765;DHT22;33529;49.242;8.670;2023-02-28T00:30:20;-0.40;99.90
47765;DHT22;33529;49.242;8.670;2023-02-28T00:32:48;-0.50;99.90
47765;DHT22;33529;49.242;8.670;2023-02-28T00:35:15;-0.40;99.90
47765;DHT22;33529;49.242;8.670;2023-02-28T00:37:42;-0.40;99.90
47765;DHT22;33529;49.242;8.670;2023-02-28T00:40:11;-0.40;99.90
47765;DHT22;33529;49.242;8.670;2023-02-28T00:42:39;-0.40;99.90
47765;DHT22;33529;49.242;8.670;2023-02-28T00:45:07;-0.40;99.90
47765;DHT22;33529;49.242;8.670;2023-02-28T00:47:37;-0.50;99.90
47765;DHT22;33529;49.242;8.670;2023-02-28T00:50:05;-0.50;99.90
47765;DHT22;33529;49.242;8.670;2023-02-28T00:52:32;-0.50;99.90
47765;DHT22;33529;49.242;8.670;2023-02-28T00:54:58;-0.50;99.90
47765;DHT22;33529;49.242;8.670;2023-02-28T00:57:26;-0.40;99.90
47765;DHT22;33529;49.242;8.670;2023-02-28T00:59:53;-0.40;99.90
47765;DHT22;33529;49.242;8.670;2023-02-28T01:02:21;-0.40;99.90
47765;DHT22;33529;49.242;8.670;2023-02-28T01:04:49;-0.50;99.90
47765;DHT22;33529;49.242;8.670;2023-02-28T01:07:16;-0.40;99.90
47765;DHT22;33529;49.242;8.670;2023-02-28T01:09:43;-0.50;99.90
47765;DHT22;33529;49.242;8.670;2023-02-28T01:12:09;-0.50;99.90
47765;DHT22;33529;49.242;8.670;2023-02-28T01:14:37;-0.60;99.90
47765;DHT22;33529;49.242;8.670;2023-02-28T01:17:04;-0.60;99.90
47765;DHT22;33529;49.242;8.670;2023-02-28T01:19:31;-0.60;99.90
47765;DHT22;33529;49.242;8.670;2023-02-28T01:22:01;-0.70;99.90
47765;DHT22;33529;49.242;8.670;2023-02-28T01:24:29;-0.70;99.90
47765;DHT22;33529;49.242;8.670;2023-02-28T01:26:56;-0.70;99.90
47765;DHT22;33529;49.242;8.670;2023-02-28T01:29:22;-0.70;99.90
47765;DHT22;33529;49.242;8.670;2023-02-28T01:31:51;-0.60;99.90
47765;DHT22;33529;49.242;8.670;2023-02-28T01:34:19;-0.60;99.90
47765;DHT22;33529;49.242;8.670;2023-02-28T01:36:46;-0.70;99.90
47765;DHT22;33529;49.242;8.670;2023-02-28T01:39:13;-0.70;99.90
47765;DHT22;33529;49.242;8.670;2023-02-28T01:41:40;-0.80;99.90
47765;DHT22;33529;49.242;8.670;2023-02-28T01:47:13;-0.70;99.90
47765;DHT22;33529;49.242;8.670;2023-02-28T01:49:40;-0.80;99.90
47765;DHT22;33529;49.242;8.670;2023-02-28T01:52:07;-0.80;99.90
47765;DHT22;33529;49.242;8.670;2023-02-28T01:54:36;-0.80;99.90
47765;DHT22;33529;49.242;8.670;2023-02-28T01:57:15;-0.80;99.90
47765;DHT22;33529;49.242;8.670;2023-02-28T01:59:48;-0.80;99.90
47765;DHT22;33529;49.242;8.670;2023-02-28T02:02:18;-0.80;99.90
47765;DHT22;33529;49.242;8.670;2023-02-28T02:05:06;-0.80;99.90
47765;DHT22;33529;49.242;8.670;2023-02-28T02:07:39;-0.80;99.90
47765;DHT22;33529;49.242;8.670;2023-02-28T02:10:14;-0.80;99.90
47765;DHT22;33529;49.242;8.670;2023-02-28T02:18:19;-0.90;99.90
47765;DHT22;33529;49.242;8.670;2023-02-28T02:26:55;-0.90;99.90
47765;DHT22;33529;49.242;8.670;2023-02-28T02:45:14;-1.00;99.90
47765;DHT22;33529;49.242;8.670;2023-02-28T02:47:43;-1.10;99.90
47765;DHT22;33529;49.242;8.670;2023-02-28T02:50:20;-1.00;99.90
47765;DHT22;33529;49.242;8.670;2023-02-28T02:52:52;-1.10;99.90
47765;DHT22;33529;49.242;8.670;2023-02-28T02:55:22;-1.10;99.90
47765;DHT22;33529;49.242;8.670;2023-02-28T02:57:57;-1.10;99.90
47765;DHT22;33529;49.242;8.670;2023-02-28T03:00:29;-1.10;99.90
47765;DHT22;33529;49.242;8.670;2023-02-28T03:02:58;-1.10;99.90
47765;DHT22;33529;49.242;8.670;2023-02-28T03:05:29;-1.00;99.90
47765;DHT22;33529;49.242;8.670;2023-02-28T03:07:57;-1.00;99.90
47765;DHT22;33529;49.242;8.670;2023-02-28T03:10:33;-1.00;99.90
47765;DHT22;33529;49.242;8.670;2023-02-28T03:13:11;-1.10;99.90
47765;DHT22;33529;49.242;8.670;2023-02-28T03:16:34;-1.00;99.90
47765;DHT22;33529;49.242;8.670;2023-02-28T03:24:31;-1.10;99.90
47765;DHT22;33529;49.242;8.670;2023-02-28T03:27:22;-1.10;99.90
47765;DHT22;33529;49.242;8.670;2023-02-28T03:35:24;-1.10;99.90
47765;DHT22;33529;49.242;8.670;2023-02-28T03:37:58;-1.20;99.90
47765;DHT22;33529;49.242;8.670;2023-02-28T03:40:30;-1.20;99.90
47765;DHT22;33529;49.242;8.670;2023-02-28T03:43:03;-1.20;99.90
47765;DHT22;33529;49.242;8.670;2023-02-28T03:45:34;-1.20;99.90
47765;DHT22;33529;49.242;8.670;2023-02-28T03:48:07;-1.20;99.90
47765;DHT22;33529;49.242;8.670;2023-02-28T03:50:39;-1.20;99.90
47765;DHT22;33529;49.242;8.670;2023-02-28T03:53:29;-1.10;99.90
47765;DHT22;33529;49.242;8.670;2023-02-28T03:56:07;-1.20;99.90
47765;DHT22;33529;49.242;8.670;2023-02-28T03:58:58;-1.20;99.90
47765;DHT22;33529;49.242;8.670;2023-02-28T04:01:33;-1.20;99.90
47765;DHT22;33529;49.242;8.670;2023-02-28T04:04:02;-1.20;99.90
47765;DHT22;33529;49.242;8.670;2023-02-28T04:06:32;-1.20;99.90
47765;DHT22;33529;49.242;8.670;2023-02-28T04:08:59;-1.20;99.90
47765;DHT22;33529;49.242;8.670;2023-02-28T04:11:33;-1.20;99.90
47765;DHT22;33529;49.242;8.670;2023-02-28T04:14:06;-1.20;99.90
47765;DHT22;33529;49.242;8.670;2023-02-28T04:16:37;-1.20;99.90
47765;DHT22;33529;49.242;8.670;2023-02-28T04:19:06;-1.10;99.90
47765;DHT22;33529;49.242;8.670;2023-02-28T04:21:39;-1.10;99.90
47765;DHT22;33529;49.242;8.670;2023-02-28T04:24:07;-1.10;99.90
47765;DHT22;33529;49.242;8.670;2023-02-28T04:26:36;-1.10;99.90
47765;DHT22;33529;49.242;8.670;2023-02-28T04:29:04;-1.10;99.90
47765;DHT22;33529;49.242;8.670;2023-02-28T04:31:32;-1.00;99.90
47765;DHT22;33529;49.242;8.670;2023-02-28T04:33:59;-1.00;99.90
47765;DHT22;33529;49.242;8.670;2023-02-28T04:36:26;-1.00;99.90
47765;DHT22;33529;49.242;8.670;2023-02-28T04:38:53;-1.00;99.90
47765;DHT22;33529;49.242;8.670;2023-02-28T04:41:21;-0.90;99.90
47765;DHT22;33529;49.242;8.670;2023-02-28T04:43:47;-0.90;99.90
47765;DHT22;33529;49.242;8.670;2023-02-28T04:46:15;-0.90;99.90
47765;DHT22;33529;49.242;8.670;2023-02-28T04:48:41;-0.90;99.90
47765;DHT22;33529;49.242;8.670;2023-02-28T04:51:12;-0.80;99.90
47765;DHT22;33529;49.242;8.670;2023-02-28T04:53:41;-0.80;99.90
47765;DHT22;33529;49.242;8.670;2023-02-28T04:56:12;-0.80;99.90
47765;DHT22;33529;49.242;8.670;2023-02-28T04:58:39;-0.80;99.90
47765;DHT22;33529;49.242;8.670;2023-02-28T05:01:22;-0.80;99.90
47765;DHT22;33529;49.242;8.670;2023-02-28T05:03:50;-0.70;99.90
47765;DHT22;33529;49.242;8.670;2023-02-28T05:06:18;-0.70;99.90
47765;DHT22;33529;49.242;8.670;2023-02-28T05:08:45;-0.70;99.90
47765;DHT22;33529;49.242;8.670;2023-02-28T05:11:32;-0.70;99.90
47765;DHT22;33529;49.242;8.670;2023-02-28T05:14:06;-0.70;99.90
47765;DHT22;33529;49.242;8.670;2023-02-28T05:16:33;-0.70;99.90
47765;DHT22;33529;49.242;8.670;2023-02-28T05:19:01;-0.80;99.90
47765;DHT22;33529;49.242;8.670;2023-02-28T05:21:40;-0.70;99.90
47765;DHT22;33529;49.242;8.670;2023-02-28T05:24:10;-0.70;99.90
47765;DHT22;33529;49.242;8.670;2023-02-28T05:26:40;-0.70;99.90
47765;DHT22;33529;49.242;8.670;2023-02-28T05:29:08;-0.70;99.90
47765;DHT22;33529;49.242;8.670;2023-02-28T05:31:35;-0.70;99.90
47765;DHT22;33529;49.242;8.670;2023-02-28T05:34:02;-0.60;99.90
47765;DHT22;33529;49.242;8.670;2023-02-28T05:36:31;-0.60;99.90
47765;DHT22;33529;49.242;8.670;2023-02-28T05:38:58;-0.70;99.90
47765;DHT22;33529;49.242;8.670;2023-02-28T05:41:25;-0.70;99.90
47765;DHT22;33529;49.242;8.670;2023-02-28T05:43:53;-0.70;99.90
47765;DHT22;33529;49.242;8.670;2023-02-28T05:46:20;-0.70;99.90
47765;DHT22;33529;49.242;8.670;2023-02-28T05:48:48;-0.70;99.90
47765;DHT22;33529;49.242;8.670;2023-02-28T05:51:15;-0.70;99.90
47765;DHT22;33529;49.242;8.670;2023-02-28T05:53:42;-0.70;99.90
47765;DHT22;33529;49.242;8.670;2023-02-28T05:56:09;-0.70;99.90
47765;DHT22;33529;49.242;8.670;2023-02-28T05:58:36;-0.70;99.90
47765;DHT22;33529;49.242;8.670;2023-02-28T06:01:24;-0.70;99.90
47765;DHT22;33529;49.242;8.670;2023-02-28T06:03:51;-0.80;99.90
47765;DHT22;33529;49.242;8.670;2023-02-28T06:06:18;-0.90;99.90
47765;DHT22;33529;49.242;8.670;2023-02-28T06:08:44;-0.90;99.90
47765;DHT22;33529;49.242;8.670;2023-02-28T06:11:12;-0.90;99.90
47765;DHT22;33529;49.242;8.670;2023-02-28T06:13:39;-0.90;99.90
47765;DHT22;33529;49.242;8.670;2023-02-28T06:16:06;-0.90;99.90
47765;DHT22;33529;49.242;8.670;2023-02-28T06:18:33;-1.00;99.90
47765;DHT22;33529;49.242;8.670;2023-02-28T06:21:00;-1.00;99.90
47765;DHT22;33529;49.242;8.670;2023-02-28T06:23:27;-1.00;99.90
47765;DHT22;33529;49.242;8.670;2023-02-28T06:25:54;-1.00;99.90
47765;DHT22;33529;49.242;8.670;2023-02-28T06:28:25;-1.00;99.90
47765;DHT22;33529;49.242;8.670;2023-02-28T06:30:52;-1.00;99.90
47765;DHT22;33529;49.242;8.670;2023-02-28T06:33:19;-1.00;99.90
47765;DHT22;33529;49.242;8.670;2023-02-28T06:35:52;-1.10;99.90
47765;DHT22;33529;49.242;8.670;2023-02-28T06:38:19;-1.00;99.90
47765;DHT22;33529;49.242;8.670;2023-02-28T06:40:53;-1.10;99.90
47765;DHT22;33529;49.242;8.670;2023-02-28T06:43:20;-1.00;99.90
47765;DHT22;33529;49.242;8.670;2023-02-28T06:45:47;-0.90;99.90
47765;DHT22;33529;49.242;8.670;2023-02-28T06:48:14;-0.90;99.90
47765;DHT22;33529;49.242;8.670;2023-02-28T06:50:41;-0.90;99.90
47765;DHT22;33529;49.242;8.670;2023-02-28T06:53:08;-0.90;99.90
47765;DHT22;33529;49.242;8.670;2023-02-28T06:55:34;-0.90;99.90
47765;DHT22;33529;49.242;8.670;2023-02-28T06:58:04;-0.90;99.90
47765;DHT22;33529;49.242;8.670;2023-02-28T07:00:42;-0.80;99.90
47765;DHT22;33529;49.242;8.670;2023-02-28T07:03:09;-0.90;99.90
47765;DHT22;33529;49.242;8.670;2023-02-28T07:05:37;-0.80;99.90
47765;DHT22;33529;49.242;8.670;2023-02-28T07:08:05;-0.80;99.90
47765;DHT22;33529;49.242;8.670;2023-02-28T07:10:33;-0.70;99.90
47765;DHT22;33529;49.242;8.670;2023-02-28T07:13:00;-0.70;99.90
47765;DHT22;33529;49.242;8.670;2023-02-28T07:15:27;-0.60;99.90
47765;DHT22;33529;49.242;8.670;2023-02-28T07:17:53;-0.60;99.90
47765;DHT22;33529;49.242;8.670;2023-02-28T07:20:21;-0.60;99.90
47765;DHT22;33529;49.242;8.670;2023-02-28T07:22:48;-0.60;99.90
47765;DHT22;33529;49.242;8.670;2023-02-28T07:25:27;-0.60;99.90
47765;DHT22;33529;49.242;8.670;2023-02-28T07:27:55;-0.60;99.90
47765;DHT22;33529;49.242;8.670;2023-02-28T07:30:22;-0.60;99.90
47765;DHT22;33529;49.242;8.670;2023-02-28T07:32:49;-0.60;99.90
47765;DHT22;33529;49.242;8.670;2023-02-28T07:35:16;-0.60;99.90
47765;DHT22;33529;49.242;8.670;2023-02-28T07:37:43;-0.60;99.90
47765;DHT22;33529;49.242;8.670;2023-02-28T07:40:11;-0.60;99.90
47765;DHT22;33529;49.242;8.670;2023-02-28T07:42:38;-0.60;99.90
47765;DHT22;33529;49.242;8.670;2023-02-28T07:45:08;-0.60;99.90
47765;DHT22;33529;49.242;8.670;2023-02-28T07:47:38;-0.60;99.90
47765;DHT22;33529;49.242;8.670;2023-02-28T07:50:07;-0.60;99.90
47765;DHT22;33529;49.242;8.670;2023-02-28T07:52:34;-0.60;99.90
47765;DHT22;33529;49.242;8.670;2023-02-28T07:55:01;-0.50;99.90
47765;DHT22;33529;49.242;8.670;2023-02-28T07:57:27;-0.40;99.90
47765;DHT22;33529;49.242;8.670;2023-02-28T07:59:54;-0.30;99.90
47765;DHT22;33529;49.242;8.670;2023-02-28T08:02:21;-0.30;99.90
47765;DHT22;33529;49.242;8.670;2023-02-28T08:04:48;-0.20;99.90
47765;DHT22;33529;49.242;8.670;2023-02-28T08:07:17;-0.10;99.90
47765;DHT22;33529;49.242;8.670;2023-02-28T08:09:44;-0.10;99.90
47765;DHT22;33529;49.242;8.670;2023-02-28T08:12:12;-0.10;99.90
47765;DHT22;33529;49.242;8.670;2023-02-28T08:14:38;0.00;99.90
47765;DHT22;33529;49.242;8.670;2023-02-28T08:17:06;0.10;99.90
47765;DHT22;33529;49.242;8.670;2023-02-28T08:19:33;0.20;99.90
47765;DHT22;33529;49.242;8.670;2023-02-28T08:22:00;0.20;99.90
47765;DHT22;33529;49.242;8.670;2023-02-28T08:24:27;0.20;99.90
47765;DHT22;33529;49.242;8.670;2023-02-28T08:26:54;0.30;99.90
47765;DHT22;33529;49.242;8.670;2023-02-28T08:29:20;0.40;99.90
47765;DHT22;33529;49.242;8.670;2023-02-28T08:31:47;0.50;99.90
47765;DHT22;33529;49.242;8.670;2023-02-28T08:34:16;0.60;99.90
47765;DHT22;33529;49.242;8.670;2023-02-28T08:36:42;0.60;99.90
47765;DHT22;33529;49.242;8.670;2023-02-28T08:39:12;0.70;99.90
47765;DHT22;33529;49.242;8.670;2023-02-28T08:41:38;0.70;99.90
47765;DHT22;33529;49.242;8.670;2023-02-28T08:44:05;0.80;99.90
47765;DHT22;33529;49.242;8.670;2023-02-28T08:46:32;0.80;99.90
47765;DHT22;33529;49.242;8.670;2023-02-28T08:48:59;0.90;99.90
47765;DHT22;33529;49.242;8.670;2023-02-28T08:51:28;0.90;99.90
47765;DHT22;33529;49.242;8.670;2023-02-28T08:53:58;0.90;99.90
47765;DHT22;33529;49.242;8.670;2023-02-28T08:56:27;1.00;99.90
47765;DHT22;33529;49.242;8.670;2023-02-28T08:58:55;1.10;99.90
47765;DHT22;33529;49.242;8.670;2023-02-28T09:01:27;1.10;99.90
47765;DHT22;33529;49.242;8.670;2023-02-28T09:03:55;1.10;99.90
47765;DHT22;33529;49.242;8.670;2023-02-28T09:06:27;1.10;99.90
47765;DHT22;33529;49.242;8.670;2023-02-28T09:08:58;1.20;99.90
47765;DHT22;33529;49.242;8.670;2023-02-28T09:11:26;1.30;99.90
47765;DHT22;33529;49.242;8.670;2023-02-28T09:13:52;1.30;99.90
47765;DHT22;33529;49.242;8.670;2023-02-28T09:16:20;1.20;99.90
47765;DHT22;33529;49.242;8.670;2023-02-28T09:18:48;1.30;99.90
47765;DHT22;33529;49.242;8.670;2023-02-28T09:21:17;1.40;99.90
47765;DHT22;33529;49.242;8.670;2023-02-28T09:23:45;1.40;99.90
47765;DHT22;33529;49.242;8.670;2023-02-28T09:26:34;1.40;99.90
47765;DHT22;33529;49.242;8.670;2023-02-28T09:29:13;1.50;99.90
47765;DHT22;33529;49.242;8.670;2023-02-28T09:31:41;1.50;99.90
47765;DHT22;33529;49.242;8.670;2023-02-28T09:34:07;1.60;99.90
47765;DHT22;33529;49.242;8.670;2023-02-28T09:36:35;1.60;99.90
47765;DHT22;33529;49.242;8.670;2023-02-28T09:39:12;1.70;99.90
47765;DHT22;33529;49.242;8.670;2023-02-28T09:41:45;1.80;99.90
47765;DHT22;33529;49.242;8.670;2023-02-28T09:44:38;1.90;99.90
47765;DHT22;33529;49.242;8.670;2023-02-28T09:47:35;1.70;99.90
47765;DHT22;33529;49.242;8.670;2023-02-28T09:50:17;1.80;99.90
47765;DHT22;33529;49.242;8.670;2023-02-28T09:52:50;1.80;99.90
47765;DHT22;33529;49.242;8.670;2023-02-28T09:55:33;1.80;99.90
47765;DHT22;33529;49.242;8.670;2023-02-28T10:01:10;2.00;99.90
47765;DHT22;33529;49.242;8.670;2023-02-28T10:03:45;2.10;99.90
47765;DHT22;33529;49.242;8.670;2023-02-28T10:06:22;2.20;99.90
47765;DHT22;33529;49.242;8.670;2023-02-28T10:09:00;2.30;99.90
47765;DHT22;33529;49.242;8.670;2023-02-28T10:11:29;2.30;99.90
47765;DHT22;33529;49.242;8.670;2023-02-28T10:14:02;2.40;99.90
47765;DHT22;33529;49.242;8.670;2023-02-28T10:19:35;2.60;99.90
47765;DHT22;33529;49.242;8.670;2023-02-28T10:22:22;2.70;99.90
47765;DHT22;33529;49.242;8.670;2023-02-28T10:24:52;2.90;99.90
47765;DHT22;33529;49.242;8.670;2023-02-28T10:27:23;2.90;99.90
47765;DHT22;33529;49.242;8.670;2023-02-28T10:29:52;2.90;99.90
47765;DHT22;33529;49.242;8.670;2023-02-28T10:32:22;2.80;99.90
47765;DHT22;33529;49.242;8.670;2023-02-28T10:34:52;2.80;99.90
47765;DHT22;33529;49.242;8.670;2023-02-28T10:37:20;2.90;99.90
47765;DHT22;33529;49.242;8.670;2023-02-28T10:39:47;3.00;99.90
47765;DHT22;33529;49.242;8.670;2023-02-28T10:42:27;3.10;99.90
47765;DHT22;33529;49.242;8.670;2023-02-28T10:45:14;2.90;99.90
47765;DHT22;33529;49.242;8.670;2023-02-28T10:51:06;2.80;99.90
47765;DHT22;33529;49.242;8.670;2023-02-28T10:53:37;2.90;99.90
47765;DHT22;33529;49.242;8.670;2023-02-28T10:56:25;3.10;99.90
47765;DHT22;33529;49.242;8.670;2023-02-28T11:01:45;3.40;99.90
47765;DHT22;33529;49.242;8.670;2023-02-28T11:07:00;3.30;99.90
47765;DHT22;33529;49.242;8.670;2023-02-28T11:09:39;3.50;99.90
47765;DHT22;33529;49.242;8.670;2023-02-28T11:12:19;3.90;99.70
47765;DHT22;33529;49.242;8.670;2023-02-28T11:14:52;3.90;98.70
47765;DHT22;33529;49.242;8.670;2023-02-28T11:17:28;4.10;99.00
47765;DHT22;33529;49.242;8.670;2023-02-28T11:19:59;4.40;98.70
47765;DHT22;33529;49.242;8.670;2023-02-28T11:22:39;4.40;97.30
47765;DHT22;33529;49.242;8.670;2023-02-28T11:25:22;4.30;97.70
47765;DHT22;33529;49.242;8.670;2023-02-28T11:27:51;4.40;98.50
47765;DHT22;33529;49.242;8.670;2023-02-28T11:30:32;4.50;97.40
47765;DHT22;33529;49.242;8.670;2023-02-28T11:35:42;4.40;97.80
47765;DHT22;33529;49.242;8.670;2023-02-28T11:38:12;4.70;97.70
47765;DHT22;33529;49.242;8.670;2023-02-28T11:51:57;4.90;96.10
47765;DHT22;33529;49.242;8.670;2023-02-28T11:57:45;4.90;95.90
47765;DHT22;33529;49.242;8.670;2023-02-28T12:14:29;4.50;97.40
47765;DHT22;33529;49.242;8.670;2023-02-28T12:19:57;4.80;97.40
47765;DHT22;33529;49.242;8.670;2023-02-28T12:28:06;5.40;95.80
47765;DHT22;33529;49.242;8.670;2023-02-28T12:30:37;5.60;95.40
47765;DHT22;33529;49.242;8.670;2023-02-28T12:33:09;5.70;94.90
47765;DHT22;33529;49.242;8.670;2023-02-28T12:36:05;5.90;95.50
47765;DHT22;33529;49.242;8.670;2023-02-28T12:38:44;6.10;95.10
47765;DHT22;33529;49.242;8.670;2023-02-28T12:41:18;6.30;94.30
47765;DHT22;33529;49.242;8.670;2023-02-28T12:43:52;6.00;93.20
47765;DHT22;33529;49.242;8.670;2023-02-28T12:46:25;5.70;94.40
47765;DHT22;33529;49.242;8.670;2023-02-28T12:48:56;5.50;93.90
47765;DHT22;33529;49.242;8.670;2023-02-28T12:51:24;5.70;95.00
47765;DHT22;33529;49.242;8.670;2023-02-28T12:54:16;5.70;94.90
47765;DHT22;33529;49.242;8.670;2023-02-28T12:57:02;5.90;95.10
47765;DHT22;33529;49.242;8.670;2023-02-28T12:59:58;6.10;94.60
47765;DHT22;33529;49.242;8.670;2023-02-28T13:02:44;6.00;93.90
47765;DHT22;33529;49.242;8.670;2023-02-28T13:05:36;6.10;94.40
47765;DHT22;33529;49.242;8.670;2023-02-28T13:10:47;6.10;93.80
47765;DHT22;33529;49.242;8.670;2023-02-28T13:13:18;5.80;94.10
47765;DHT22;33529;49.242;8.670;2023-02-28T13:16:06;5.80;94.90
47765;DHT22;33529;49.242;8.670;2023-02-28T13:18:38;5.80;94.50
47765;DHT22;33529;49.242;8.670;2023-02-28T13:21:21;5.80;94.10
47765;DHT22;33529;49.242;8.670;2023-02-28T13:34:39;5.80;94.60
47765;DHT22;33529;49.242;8.670;2023-02-28T13:39:52;5.60;94.10
47765;DHT22;33529;49.242;8.670;2023-02-28T13:42:34;5.50;94.20
47765;DHT22;33529;49.242;8.670;2023-02-28T13:47:33;5.70;94.10
47765;DHT22;33529;49.242;8.670;2023-02-28T13:55:57;5.80;94.40
47765;DHT22;33529;49.242;8.670;2023-02-28T14:06:28;6.00;93.40
47765;DHT22;33529;49.242;8.670;2023-02-28T14:09:06;5.90;93.70
47765;DHT22;33529;49.242;8.670;2023-02-28T14:11:44;5.70;93.90
47765;DHT22;33529;49.242;8.670;2023-02-28T14:17:08;5.70;94.10
47765;DHT22;33529;49.242;8.670;2023-02-28T14:19:40;5.60;94.10
47765;DHT22;33529;49.242;8.670;2023-02-28T14:25:19;5.90;93.90
47765;DHT22;33529;49.242;8.670;2023-02-28T14:28:18;6.00;93.00
47765;DHT22;33529;49.242;8.670;2023-02-28T14:31:06;5.90;94.10
47765;DHT22;33529;49.242;8.670;2023-02-28T14:36:37;5.60;93.90
47765;DHT22;33529;49.242;8.670;2023-02-28T14:39:23;5.20;94.20
47765;DHT22;33529;49.242;8.670;2023-02-28T14:41:52;5.20;94.30
47765;DHT22;33529;49.242;8.670;2023-02-28T14:44:24;5.10;94.10
47765;DHT22;33529;49.242;8.670;2023-02-28T14:47:02;5.10;94.40
47765;DHT22;33529;49.242;8.670;2023-02-28T14:49:42;5.00;94.60
47765;DHT22;33529;49.242;8.670;2023-02-28T14:52:17;5.10;95.00
47765;DHT22;33529;49.242;8.670;2023-02-28T14:54:46;5.10;94.80
47765;DHT22;33529;49.242;8.670;2023-02-28T14:57:25;5.00;94.50
47765;DHT22;33529;49.242;8.670;2023-02-28T15:00:21;5.00;95.00
47765;DHT22;33529;49.242;8.670;2023-02-28T15:02:49;4.90;95.20
47765;DHT22;33529;49.242;8.670;2023-02-28T15:08:03;4.90;95.50
47765;DHT22;33529;49.242;8.670;2023-02-28T15:10:31;5.00;95.30
47765;DHT22;33529;49.242;8.670;2023-02-28T15:13:01;4.90;95.10
47765;DHT22;33529;49.242;8.670;2023-02-28T15:18:48;4.80;95.40
47765;DHT22;33529;49.242;8.670;2023-02-28T15:21:22;4.70;95.50
47765;DHT22;33529;49.242;8.670;2023-02-28T15:26:21;4.70;95.90
47765;DHT22;33529;49.242;8.670;2023-02-28T15:28:59;4.70;96.20
47765;DHT22;33529;49.242;8.670;2023-02-28T15:31:29;4.70;96.20
47765;DHT22;33529;49.242;8.670;2023-02-28T15:34:20;4.60;96.10
47765;DHT22;33529;49.242;8.670;2023-02-28T15:36:50;4.60;95.80
47765;DHT22;33529;49.242;8.670;2023-02-28T15:39:20;4.50;96.30
47765;DHT22;33529;49.242;8.670;2023-02-28T15:41:47;4.60;96.20
47765;DHT22;33529;49.242;8.670;2023-02-28T15:44:27;4.60;96.80
47765;DHT22;33529;49.242;8.670;2023-02-28T15:47:11;4.60;96.00
47765;DHT22;33529;49.242;8.670;2023-02-28T15:49:50;4.50;96.10
47765;DHT22;33529;49.242;8.670;2023-02-28T15:52:21;4.50;96.90
47765;DHT22;33529;49.242;8.670;2023-02-28T15:54:49;4.50;96.40
47765;DHT22;33529;49.242;8.670;2023-02-28T15:57:22;4.50;96.60
47765;DHT22;33529;49.242;8.670;2023-02-28T15:59:54;4.50;97.20
47765;DHT22;33529;49.242;8.670;2023-02-28T16:02:31;4.40;95.90
47765;DHT22;33529;49.242;8.670;2023-02-28T16:05:18;4.30;96.60
47765;DHT22;33529;49.242;8.670;2023-02-28T16:07:47;4.20;97.00
47765;DHT22;33529;49.242;8.670;2023-02-28T16:10:17;4.20;96.60
47765;DHT22;33529;49.242;8.670;2023-02-28T16:12:44;4.10;97.10
47765;DHT22;33529;49.242;8.670;2023-02-28T16:15:28;4.10;96.70
47765;DHT22;33529;49.242;8.670;2023-02-28T16:17:56;4.10;97.10
47765;DHT22;33529;49.242;8.670;2023-02-28T16:20:30;4.00;97.80
47765;DHT22;33529;49.242;8.670;2023-02-28T16:22:57;4.00;97.40
47765;DHT22;33529;49.242;8.670;2023-02-28T16:25:40;4.00;97.50
47765;DHT22;33529;49.242;8.670;2023-02-28T16:30:42;3.90;97.70
47765;DHT22;33529;49.242;8.670;2023-02-28T16:33:09;3.90;97.80
47765;DHT22;33529;49.242;8.670;2023-02-28T16:35:36;3.90;98.00
47765;DHT22;33529;49.242;8.670;2023-02-28T16:38:03;3.80;97.90
47765;DHT22;33529;49.242;8.670;2023-02-28T16:40:33;3.80;97.80
47765;DHT22;33529;49.242;8.670;2023-02-28T16:43:05;3.70;98.50
47765;DHT22;33529;49.242;8.670;2023-02-28T16:45:32;3.70;98.20
47765;DHT22;33529;49.242;8.670;2023-02-28T16:47:59;3.70;98.30
47765;DHT22;33529;49.242;8.670;2023-02-28T16:50:28;3.60;98.30
47765;DHT22;33529;49.242;8.670;2023-02-28T16:52:56;3.60;98.40
47765;DHT22;33529;49.242;8.670;2023-02-28T16:55:24;3.50;99.00
47765;DHT22;33529;49.242;8.670;2023-02-28T16:57:54;3.50;99.10
47765;DHT22;33529;49.242;8.670;2023-02-28T17:00:21;3.40;99.20
47765;DHT22;33529;49.242;8.670;2023-02-28T17:02:48;3.40;99.70
47765;DHT22;33529;49.242;8.670;2023-02-28T17:05:16;3.30;99.40
47765;DHT22;33529;49.242;8.670;2023-02-28T17:07:45;3.30;99.70
47765;DHT22;33529;49.242;8.670;2023-02-28T17:10:25;3.30;99.70
47765;DHT22;33529;49.242;8.670;2023-02-28T17:12:52;3.20;99.90
47765;DHT22;33529;49.242;8.670;2023-02-28T17:15:28;3.10;99.90
47765;DHT22;33529;49.242;8.670;2023-02-28T17:17:56;3.10;99.90
47765;DHT22;33529;49.242;8.670;2023-02-28T17:20:23;3.00;99.90
47765;DHT22;33529;49.242;8.670;2023-02-28T17:22:51;3.00;99.90
47765;DHT22;33529;49.242;8.670;2023-02-28T17:25:18;3.00;99.90
47765;DHT22;33529;49.242;8.670;2023-02-28T17:27:46;2.90;99.90
47765;DHT22;33529;49.242;8.670;2023-02-28T17:30:18;2.90;99.90
47765;DHT22;33529;49.242;8.670;2023-02-28T17:32:45;2.80;99.90
47765;DHT22;33529;49.242;8.670;2023-02-28T17:35:12;2.80;99.90
47765;DHT22;33529;49.242;8.670;2023-02-28T17:37:40;2.70;99.90
47765;DHT22;33529;49.242;8.670;2023-02-28T17:40:16;2.70;99.90
47765;DHT22;33529;49.242;8.670;2023-02-28T17:42:44;2.70;99.90
47765;DHT22;33529;49.242;8.670;2023-02-28T17:45:11;2.70;99.90
47765;DHT22;33529;49.242;8.670;2023-02-28T17:47:38;2.70;99.90
47765;DHT22;33529;49.242;8.670;2023-02-28T17:50:05;2.60;99.90
47765;DHT22;33529;49.242;8.670;2023-02-28T17:52:32;2.60;99.90
47765;DHT22;33529;49.242;8.670;2023-02-28T17:55:04;2.60;99.90
47765;DHT22;33529;49.242;8.670;2023-02-28T17:57:31;2.50;99.90
47765;DHT22;33529;49.242;8.670;2023-02-28T17:59:58;2.50;99.90
47765;DHT22;33529;49.242;8.670;2023-02-28T18:02:24;2.50;99.90
47765;DHT22;33529;49.242;8.670;2023-02-28T18:04:52;2.40;99.90
47765;DHT22;33529;49.242;8.670;2023-02-28T18:07:20;2.40;99.90
47765;DHT22;33529;49.242;8.670;2023-02-28T18:09:50;2.40;99.90
47765;DHT22;33529;49.242;8.670;2023-02-28T18:12:17;2.40;99.90
47765;DHT22;33529;49.242;8.670;2023-02-28T18:14:44;2.40;99.90
47765;DHT22;33529;49.242;8.670;2023-02-28T18:17:11;2.40;99.90
47765;DHT22;33529;49.242;8.670;2023-02-28T18:19:39;2.40;99.90
47765;DHT22;33529;49.242;8.670;2023-02-28T18:22:07;2.30;99.90
47765;DHT22;33529;49.242;8.670;2023-02-28T18:24:34;2.30;99.90
47765;DHT22;33529;49.242;8.670;2023-02-28T18:27:02;2.20;99.90
47765;DHT22;33529;49.242;8.670;2023-02-28T18:29:29;2.20;99.90
47765;DHT22;33529;49.242;8.670;2023-02-28T18:31:57;2.20;99.90
47765;DHT22;33529;49.242;8.670;2023-02-28T18:34:24;2.10;99.90